sensor_id;sensor_type;location;lat;lon;timestamp;temperature;humidity
47516;DHT22;33249;51.990;5.840;2022-07-03T00:00:20;17.80;99.90
47516;DHT22;33249;51.990;5.840;2022-07-03T00:02:49;17.70;99.90
47516;DHT22;33249;51.990;5.840;2022-07-03T00:05:18;17.60;99.90
47516;DHT22;33249;51.990;5.840;2022-07-03T00:07:44;17.60;99.90
47516;DHT22;33249;51.990;5.840;2022-07-03T00:10:10;17.50;99.90
47516;DHT22;33249;51.990;5.840;2022-07-03T00:12:36;17.70;99.90
47516;DHT22;33249;51.990;5.840;2022-07-03T00:15:02;17.60;99.90
47516;DHT22;33249;51.990;5.840;2022-07-03T00:17:31;17.60;99.90
47516;DHT22;33249;51.990;5.840;2022-07-03T00:19:57;17.60;99.90
47516;DHT22;33249;51.990;5.840;2022-07-03T00:22:24;17.60;99.90
47516;DHT22;33249;51.990;5.840;2022-07-03T00:24:51;17.70;99.90
47516;DHT22;33249;51.990;5.840;2022-07-03T00:27:18;17.70;99.90
47516;DHT22;33249;51.990;5.840;2022-07-03T00:29:47;17.60;99.90
47516;DHT22;33249;51.990;5.840;2022-07-03T00:32:26;17.50;99.90
47516;DHT22;33249;51.990;5.840;2022-07-03T00:34:55;17.40;99.90
47516;DHT22;33249;51.990;5.840;2022-07-03T00:37:22;17.60;99.90
47516;DHT22;33249;51.990;5.840;2022-07-03T00:39:50;17.50;99.90
47516;DHT22;33249;51.990;5.840;2022-07-03T00:42:17;17.60;99.90
47516;DHT22;33249;51.990;5.840;2022-07-03T00:44:48;17.60;99.90
47516;DHT22;33249;51.990;5.840;2022-07-03T00:47:19;17.50;99.90
47516;DHT22;33249;51.990;5.840;2022-07-03T00:49:46;17.50;99.90
47516;DHT22;33249;51.990;5.840;2022-07-03T00:52:15;17.40;99.90
47516;DHT22;33249;51.990;5.840;2022-07-03T00:54:43;17.70;99.90
47516;DHT22;33249;51.990;5.840;2022-07-03T00:57:13;17.70;99.90
47516;DHT22;33249;51.990;5.840;2022-07-03T00:59:43;17.60;99.90
47516;DHT22;33249;51.990;5.840;2022-07-03T01:02:12;17.60;99.90
47516;DHT22;33249;51.990;5.840;2022-07-03T01:05:02;17.40;99.90
47516;DHT22;33249;51.990;5.840;2022-07-03T01:13:08;17.10;99.90
47516;DHT22;33249;51.990;5.840;2022-07-03T01:18:38;17.10;99.90
47516;DHT22;33249;51.990;5.840;2022-07-03T01:21:13;17.10;99.90
47516;DHT22;33249;51.990;5.840;2022-07-03T01:24:00;17.30;99.90
47516;DHT22;33249;51.990;5.840;2022-07-03T01:26:35;17.20;99.90
47516;DHT22;33249;51.990;5.840;2022-07-03T01:29:08;17.10;99.90
47516;DHT22;33249;51.990;5.840;2022-07-03T01:31:38;17.10;99.90
47516;DHT22;33249;51.990;5.840;2022-07-03T01:34:06;16.70;99.90
47516;DHT22;33249;51.990;5.840;2022-07-03T01:36:34;16.50;99.90
47516;DHT22;33249;51.990;5.840;2022-07-03T01:39:02;16.60;99.90
47516;DHT22;33249;51.990;5.840;2022-07-03T01:41:31;16.70;99.90
47516;DHT22;33249;51.990;5.840;2022-07-03T01:43:57;16.70;99.90
47516;DHT22;33249;51.990;5.840;2022-07-03T01:46:27;16.70;99.90
47516;DHT22;33249;51.990;5.840;2022-07-03T01:48:56;16.80;99.90
47516;DHT22;33249;51.990;5.840;2022-07-03T01:51:23;17.00;99.90
47516;DHT22;33249;51.990;5.840;2022-07-03T01:53:59;16.90;99.90
47516;DHT22;33249;51.990;5.840;2022-07-03T01:56:33;16.80;99.90
47516;DHT22;33249;51.990;5.840;2022-07-03T01:59:00;16.90;99.90
47516;DHT22;33249;51.990;5.840;2022-07-03T02:01:45;17.00;99.90
47516;DHT22;33249;51.990;5.840;2022-07-03T02:07:03;16.90;99.90
47516;DHT22;33249;51.990;5.840;2022-07-03T02:09:40;16.70;99.90
47516;DHT22;33249;51.990;5.840;2022-07-03T02:12:15;16.50;99.90
47516;DHT22;33249;51.990;5.840;2022-07-03T02:14:46;16.50;99.90
47516;DHT22;33249;51.990;5.840;2022-07-03T02:17:22;16.60;99.90
47516;DHT22;33249;51.990;5.840;2022-07-03T02:19:53;16.40;99.90
47516;DHT22;33249;51.990;5.840;2022-07-03T02:22:19;16.30;99.90
47516;DHT22;33249;51.990;5.840;2022-07-03T02:24:47;16.10;99.90
47516;DHT22;33249;51.990;5.840;2022-07-03T02:27:17;16.20;99.90
47516;DHT22;33249;51.990;5.840;2022-07-03T02:32:15;16.20;99.90
47516;DHT22;33249;51.990;5.840;2022-07-03T02:34:44;16.00;99.90
47516;DHT22;33249;51.990;5.840;2022-07-03T02:37:15;16.00;99.90
47516;DHT22;33249;51.990;5.840;2022-07-03T02:39:48;15.80;99.90
47516;DHT22;33249;51.990;5.840;2022-07-03T02:42:22;15.80;99.90
47516;DHT22;33249;51.990;5.840;2022-07-03T02:44:51;15.70;99.90
47516;DHT22;33249;51.990;5.840;2022-07-03T02:55:04;15.50;99.90
47516;DHT22;33249;51.990;5.840;2022-07-03T02:57:36;15.40;99.90
47516;DHT22;33249;51.990;5.840;2022-07-03T03:00:09;15.60;99.90
47516;DHT22;33249;51.990;5.840;2022-07-03T03:05:30;15.90;99.90
47516;DHT22;33249;51.990;5.840;2022-07-03T03:10:36;15.90;99.90
47516;DHT22;33249;51.990;5.840;2022-07-03T03:13:09;15.80;99.90
47516;DHT22;33249;51.990;5.840;2022-07-03T03:15:41;15.60;99.90
47516;DHT22;33249;51.990;5.840;2022-07-03T03:18:11;15.50;99.90
47516;DHT22;33249;51.990;5.840;2022-07-03T03:20:39;15.50;99.90
47516;DHT22;33249;51.990;5.840;2022-07-03T03:25:57;15.50;99.90
47516;DHT22;33249;51.990;5.840;2022-07-03T03:28:26;15.50;99.90
47516;DHT22;33249;51.990;5.840;2022-07-03T03:30:53;15.30;99.90
47516;DHT22;33249;51.990;5.840;2022-07-03T03:33:19;15.40;99.90
47516;DHT22;33249;51.990;5.840;2022-07-03T03:35:48;15.30;99.90
47516;DHT22;33249;51.990;5.840;2022-07-03T03:38:17;15.30;99.90
47516;DHT22;33249;51.990;5.840;2022-07-03T03:40:43;15.40;99.90
47516;DHT22;33249;51.990;5.840;2022-07-03T03:43:12;15.40;99.90
47516;DHT22;33249;51.990;5.840;2022-07-03T03:48:32;15.40;99.90
47516;DHT22;33249;51.990;5.840;2022-07-03T03:50:59;15.40;99.90
47516;DHT22;33249;51.990;5.840;2022-07-03T03:53:27;15.50;99.90
47516;DHT22;33249;51.990;5.840;2022-07-03T03:56:02;15.40;99.90
47516;DHT22;33249;51.990;5.840;2022-07-03T03:58:29;15.40;99.90
47516;DHT22;33249;51.990;5.840;2022-07-03T04:00:59;15.30;99.90
47516;DHT22;33249;51.990;5.840;2022-07-03T04:03:25;15.30;99.90
47516;DHT22;33249;51.990;5.840;2022-07-03T04:06:05;15.40;99.90
47516;DHT22;33249;51.990;5.840;2022-07-03T04:08:31;15.40;99.90
47516;DHT22;33249;51.990;5.840;2022-07-03T04:10:59;15.30;99.90
47516;DHT22;33249;51.990;5.840;2022-07-03T04:13:25;15.30;99.90
47516;DHT22;33249;51.990;5.840;2022-07-03T04:15:53;15.30;99.90
47516;DHT22;33249;51.990;5.840;2022-07-03T04:18:19;15.30;99.90
47516;DHT22;33249;51.990;5.840;2022-07-03T04:20:48;15.40;99.90
47516;DHT22;33249;51.990;5.840;2022-07-03T04:23:14;15.50;99.90
47516;DHT22;33249;51.990;5.840;2022-07-03T04:25:42;15.40;99.90
47516;DHT22;33249;51.990;5.840;2022-07-03T04:28:11;15.40;99.90
47516;DHT22;33249;51.990;5.840;2022-07-03T04:30:43;15.50;99.90
47516;DHT22;33249;51.990;5.840;2022-07-03T04:33:09;15.50;99.90
47516;DHT22;33249;51.990;5.840;2022-07-03T04:35:35;15.60;99.90
47516;DHT22;33249;51.990;5.840;2022-07-03T04:38:07;15.60;99.90
47516;DHT22;33249;51.990;5.840;2022-07-03T04:40:33;15.50;99.90
47516;DHT22;33249;51.990;5.840;2022-07-03T04:43:01;15.50;99.90
47516;DHT22;33249;51.990;5.840;2022-07-03T04:45:30;15.40;99.90
47516;DHT22;33249;51.990;5.840;2022-07-03T04:47:58;15.50;99.90
47516;DHT22;33249;51.990;5.840;2022-07-03T04:50:27;15.50;99.90
47516;DHT22;33249;51.990;5.840;2022-07-03T04:53:11;15.50;99.90
47516;DHT22;33249;51.990;5.840;2022-07-03T04:55:40;15.70;99.90
47516;DHT22;33249;51.990;5.840;2022-07-03T04:58:06;15.90;99.90
47516;DHT22;33249;51.990;5.840;2022-07-03T05:00:36;16.00;99.90
47516;DHT22;33249;51.990;5.840;2022-07-03T05:03:05;16.20;99.90
47516;DHT22;33249;51.990;5.840;2022-07-03T05:05:36;16.80;99.90
47516;DHT22;33249;51.990;5.840;2022-07-03T05:08:07;17.90;99.90
47516;DHT22;33249;51.990;5.840;2022-07-03T05:10:33;19.00;99.90
47516;DHT22;33249;51.990;5.840;2022-07-03T05:12:59;20.00;99.90
47516;DHT22;33249;51.990;5.840;2022-07-03T05:15:28;19.90;99.90
47516;DHT22;33249;51.990;5.840;2022-07-03T05:17:56;20.10;99.90
47516;DHT22;33249;51.990;5.840;2022-07-03T05:20:28;20.10;99.90
47516;DHT22;33249;51.990;5.840;2022-07-03T05:22:56;19.60;99.90
47516;DHT22;33249;51.990;5.840;2022-07-03T05:25:26;18.90;99.90
47516;DHT22;33249;51.990;5.840;2022-07-03T05:27:55;18.40;99.90
47516;DHT22;33249;51.990;5.840;2022-07-03T05:30:23;18.10;99.90
47516;DHT22;33249;51.990;5.840;2022-07-03T05:32:50;18.00;99.90
47516;DHT22;33249;51.990;5.840;2022-07-03T05:35:19;17.90;99.90
47516;DHT22;33249;51.990;5.840;2022-07-03T05:37:45;18.00;99.90
47516;DHT22;33249;51.990;5.840;2022-07-03T05:40:11;17.70;99.90
47516;DHT22;33249;51.990;5.840;2022-07-03T05:42:42;17.60;99.90
47516;DHT22;33249;51.990;5.840;2022-07-03T05:45:11;17.50;99.90
47516;DHT22;33249;51.990;5.840;2022-07-03T05:47:37;17.50;99.90
47516;DHT22;33249;51.990;5.840;2022-07-03T05:50:03;17.60;99.90
47516;DHT22;33249;51.990;5.840;2022-07-03T05:52:29;17.60;99.90
47516;DHT22;33249;51.990;5.840;2022-07-03T05:55:00;17.70;99.90
47516;DHT22;33249;51.990;5.840;2022-07-03T05:57:29;17.70;99.90
47516;DHT22;33249;51.990;5.840;2022-07-03T06:00:01;17.70;99.90
47516;DHT22;33249;51.990;5.840;2022-07-03T06:02:27;17.70;99.90
47516;DHT22;33249;51.990;5.840;2022-07-03T06:04:54;17.90;99.90
47516;DHT22;33249;51.990;5.840;2022-07-03T06:07:20;18.10;99.90
47516;DHT22;33249;51.990;5.840;2022-07-03T06:09:46;18.20;99.90
47516;DHT22;33249;51.990;5.840;2022-07-03T06:12:13;18.50;99.90
47516;DHT22;33249;51.990;5.840;2022-07-03T06:14:45;19.00;99.90
47516;DHT22;33249;51.990;5.840;2022-07-03T06:17:13;19.40;99.90
47516;DHT22;33249;51.990;5.840;2022-07-03T06:19:45;19.50;99.90
47516;DHT22;33249;51.990;5.840;2022-07-03T06:22:16;19.60;99.90
47516;DHT22;33249;51.990;5.840;2022-07-03T06:24:45;19.40;99.90
47516;DHT22;33249;51.990;5.840;2022-07-03T06:27:19;19.50;99.90
47516;DHT22;33249;51.990;5.840;2022-07-03T06:29:45;19.80;99.90
47516;DHT22;33249;51.990;5.840;2022-07-03T06:32:11;20.00;99.90
47516;DHT22;33249;51.990;5.840;2022-07-03T06:34:40;20.00;99.90
47516;DHT22;33249;51.990;5.840;2022-07-03T06:37:09;19.80;99.90
47516;DHT22;33249;51.990;5.840;2022-07-03T06:39:40;19.50;99.90
47516;DHT22;33249;51.990;5.840;2022-07-03T06:42:17;19.30;99.90
47516;DHT22;33249;51.990;5.840;2022-07-03T06:44:46;19.40;99.90
47516;DHT22;33249;51.990;5.840;2022-07-03T06:47:36;19.30;99.90
47516;DHT22;33249;51.990;5.840;2022-07-03T06:50:10;19.30;99.90
47516;DHT22;33249;51.990;5.840;2022-07-03T06:52:36;19.30;99.90
47516;DHT22;33249;51.990;5.840;2022-07-03T06:55:02;19.40;99.90
47516;DHT22;33249;51.990;5.840;2022-07-03T06:57:28;19.80;99.90
47516;DHT22;33249;51.990;5.840;2022-07-03T06:59:54;20.00;99.90
47516;DHT22;33249;51.990;5.840;2022-07-03T07:02:20;19.80;99.90
47516;DHT22;33249;51.990;5.840;2022-07-03T07:04:49;19.60;99.90
47516;DHT22;33249;51.990;5.840;2022-07-03T07:07:15;19.50;99.90
47516;DHT22;33249;51.990;5.840;2022-07-03T07:09:53;20.00;99.90
47516;DHT22;33249;51.990;5.840;2022-07-03T07:12:22;20.40;99.90
47516;DHT22;33249;51.990;5.840;2022-07-03T07:14:51;20.70;99.90
47516;DHT22;33249;51.990;5.840;2022-07-03T07:17:20;20.90;99.90
47516;DHT22;33249;51.990;5.840;2022-07-03T07:22:51;20.80;99.90
47516;DHT22;33249;51.990;5.840;2022-07-03T07:25:21;20.90;99.90
47516;DHT22;33249;51.990;5.840;2022-07-03T07:27:51;20.90;99.90
47516;DHT22;33249;51.990;5.840;2022-07-03T07:30:29;20.60;99.90
47516;DHT22;33249;51.990;5.840;2022-07-03T07:32:58;20.80;99.90
47516;DHT22;33249;51.990;5.840;2022-07-03T07:35:34;21.40;99.90
47516;DHT22;33249;51.990;5.840;2022-07-03T07:38:06;22.50;99.90
47516;DHT22;33249;51.990;5.840;2022-07-03T07:40:36;23.10;99.90
47516;DHT22;33249;51.990;5.840;2022-07-03T07:43:07;23.20;99.90
47516;DHT22;33249;51.990;5.840;2022-07-03T07:45:38;22.30;99.90
47516;DHT22;33249;51.990;5.840;2022-07-03T07:48:07;21.80;99.90
47516;DHT22;33249;51.990;5.840;2022-07-03T07:50:37;22.40;99.90
47516;DHT22;33249;51.990;5.840;2022-07-03T07:53:03;23.00;99.90
47516;DHT22;33249;51.990;5.840;2022-07-03T07:55:29;23.30;99.90
47516;DHT22;33249;51.990;5.840;2022-07-03T07:57:58;22.80;99.90
47516;DHT22;33249;51.990;5.840;2022-07-03T08:00:26;23.20;99.90
47516;DHT22;33249;51.990;5.840;2022-07-03T08:02:56;23.00;99.90
47516;DHT22;33249;51.990;5.840;2022-07-03T08:05:49;23.40;99.90
47516;DHT22;33249;51.990;5.840;2022-07-03T08:08:24;23.80;99.90
47516;DHT22;33249;51.990;5.840;2022-07-03T08:10:53;23.80;99.90
47516;DHT22;33249;51.990;5.840;2022-07-03T08:13:19;24.10;99.90
47516;DHT22;33249;51.990;5.840;2022-07-03T08:15:46;24.30;99.90
47516;DHT22;33249;51.990;5.840;2022-07-03T08:18:15;24.20;99.70
47516;DHT22;33249;51.990;5.840;2022-07-03T08:20:41;25.20;99.60
47516;DHT22;33249;51.990;5.840;2022-07-03T08:23:12;25.90;98.60
47516;DHT22;33249;51.990;5.840;2022-07-03T08:26:04;26.00;97.20
47516;DHT22;33249;51.990;5.840;2022-07-03T08:28:30;26.30;96.30
47516;DHT22;33249;51.990;5.840;2022-07-03T08:31:00;26.30;96.10
47516;DHT22;33249;51.990;5.840;2022-07-03T08:33:32;26.20;95.20
47516;DHT22;33249;51.990;5.840;2022-07-03T08:36:05;25.90;96.40
47516;DHT22;33249;51.990;5.840;2022-07-03T08:38:54;26.50;95.80
47516;DHT22;33249;51.990;5.840;2022-07-03T08:41:24;26.90;94.80
47516;DHT22;33249;51.990;5.840;2022-07-03T08:43:52;26.60;94.50
47516;DHT22;33249;51.990;5.840;2022-07-03T08:46:39;26.60;95.20
47516;DHT22;33249;51.990;5.840;2022-07-03T08:49:23;27.00;95.70
47516;DHT22;33249;51.990;5.840;2022-07-03T08:51:58;27.60;94.80
47516;DHT22;33249;51.990;5.840;2022-07-03T08:54:28;28.10;94.30
47516;DHT22;33249;51.990;5.840;2022-07-03T08:56:54;28.30;93.90
47516;DHT22;33249;51.990;5.840;2022-07-03T08:59:23;28.20;93.90
47516;DHT22;33249;51.990;5.840;2022-07-03T09:01:52;28.00;93.70
47516;DHT22;33249;51.990;5.840;2022-07-03T09:04:22;28.00;94.20
47516;DHT22;33249;51.990;5.840;2022-07-03T09:06:50;28.20;94.10
47516;DHT22;33249;51.990;5.840;2022-07-03T09:09:20;28.30;93.60
47516;DHT22;33249;51.990;5.840;2022-07-03T09:12:22;28.00;94.30
47516;DHT22;33249;51.990;5.840;2022-07-03T09:15:04;27.70;93.60
47516;DHT22;33249;51.990;5.840;2022-07-03T09:17:31;26.50;95.70
47516;DHT22;33249;51.990;5.840;2022-07-03T09:19:59;25.90;94.90
47516;DHT22;33249;51.990;5.840;2022-07-03T09:22:40;26.50;95.50
47516;DHT22;33249;51.990;5.840;2022-07-03T09:25:12;26.40;94.70
47516;DHT22;33249;51.990;5.840;2022-07-03T09:28:13;26.30;95.70
47516;DHT22;33249;51.990;5.840;2022-07-03T09:31:01;26.10;95.10
47516;DHT22;33249;51.990;5.840;2022-07-03T09:33:36;25.80;95.40
47516;DHT22;33249;51.990;5.840;2022-07-03T09:39:23;26.80;97.00
47516;DHT22;33249;51.990;5.840;2022-07-03T09:44:28;25.60;96.70
47516;DHT22;33249;51.990;5.840;2022-07-03T09:52:50;26.60;95.30
47516;DHT22;33249;51.990;5.840;2022-07-03T09:55:17;26.50;95.90
47516;DHT22;33249;51.990;5.840;2022-07-03T10:00:30;27.30;94.70
47516;DHT22;33249;51.990;5.840;2022-07-03T10:03:09;27.30;94.20
47516;DHT22;33249;51.990;5.840;2022-07-03T10:05:42;27.50;95.60
47516;DHT22;33249;51.990;5.840;2022-07-03T10:08:17;27.80;94.10
47516;DHT22;33249;51.990;5.840;2022-07-03T10:10:51;26.20;95.50
47516;DHT22;33249;51.990;5.840;2022-07-03T10:16:31;27.60;93.90
47516;DHT22;33249;51.990;5.840;2022-07-03T10:19:26;27.50;95.20
47516;DHT22;33249;51.990;5.840;2022-07-03T10:22:01;27.90;95.20
47516;DHT22;33249;51.990;5.840;2022-07-03T10:24:29;27.70;94.40
47516;DHT22;33249;51.990;5.840;2022-07-03T10:26:55;27.70;94.90
47516;DHT22;33249;51.990;5.840;2022-07-03T10:29:26;27.70;94.00
47516;DHT22;33249;51.990;5.840;2022-07-03T10:31:57;26.90;94.80
47516;DHT22;33249;51.990;5.840;2022-07-03T10:34:24;27.00;95.00
47516;DHT22;33249;51.990;5.840;2022-07-03T10:36:51;27.00;95.00
47516;DHT22;33249;51.990;5.840;2022-07-03T10:39:23;26.60;94.50
47516;DHT22;33249;51.990;5.840;2022-07-03T10:45:09;27.10;96.40
47516;DHT22;33249;51.990;5.840;2022-07-03T10:47:45;27.30;94.60
47516;DHT22;33249;51.990;5.840;2022-07-03T10:50:15;27.50;93.10
47516;DHT22;33249;51.990;5.840;2022-07-03T10:52:44;27.20;93.90
47516;DHT22;33249;51.990;5.840;2022-07-03T10:55:11;26.60;95.50
47516;DHT22;33249;51.990;5.840;2022-07-03T10:57:37;27.00;94.20
47516;DHT22;33249;51.990;5.840;2022-07-03T11:00:04;27.20;94.90
47516;DHT22;33249;51.990;5.840;2022-07-03T11:02:33;26.60;94.20
47516;DHT22;33249;51.990;5.840;2022-07-03T11:07:25;27.20;94.30
47516;DHT22;33249;51.990;5.840;2022-07-03T11:18:26;26.60;94.20
47516;DHT22;33249;51.990;5.840;2022-07-03T11:25:51;26.60;94.40
47516;DHT22;33249;51.990;5.840;2022-07-03T11:33:40;25.30;97.10
47516;DHT22;33249;51.990;5.840;2022-07-03T11:36:06;25.60;97.20
47516;DHT22;33249;51.990;5.840;2022-07-03T11:38:31;26.20;96.40
47516;DHT22;33249;51.990;5.840;2022-07-03T11:40:58;25.80;95.90
47516;DHT22;33249;51.990;5.840;2022-07-03T11:43:25;25.60;95.00
47516;DHT22;33249;51.990;5.840;2022-07-03T11:45:51;26.10;95.00
47516;DHT22;33249;51.990;5.840;2022-07-03T11:48:21;26.50;94.30
47516;DHT22;33249;51.990;5.840;2022-07-03T11:50:48;25.80;94.10
47516;DHT22;33249;51.990;5.840;2022-07-03T11:53:14;26.60;93.80
47516;DHT22;33249;51.990;5.840;2022-07-03T11:55:50;26.40;95.40
47516;DHT22;33249;51.990;5.840;2022-07-03T11:58:17;26.70;94.20
47516;DHT22;33249;51.990;5.840;2022-07-03T12:00:43;26.40;94.40
47516;DHT22;33249;51.990;5.840;2022-07-03T12:03:13;26.10;93.00
47516;DHT22;33249;51.990;5.840;2022-07-03T12:05:51;26.60;94.10
47516;DHT22;33249;51.990;5.840;2022-07-03T12:08:38;27.00;93.90
47516;DHT22;33249;51.990;5.840;2022-07-03T12:11:15;27.20;92.70
47516;DHT22;33249;51.990;5.840;2022-07-03T12:13:42;27.10;93.00
47516;DHT22;33249;51.990;5.840;2022-07-03T12:16:09;26.50;92.20
47516;DHT22;33249;51.990;5.840;2022-07-03T12:18:51;26.60;93.00
47516;DHT22;33249;51.990;5.840;2022-07-03T12:21:18;26.10;93.70
47516;DHT22;33249;51.990;5.840;2022-07-03T12:23:45;25.50;94.50
47516;DHT22;33249;51.990;5.840;2022-07-03T12:26:12;25.20;94.90
47516;DHT22;33249;51.990;5.840;2022-07-03T12:28:38;25.30;95.30
47516;DHT22;33249;51.990;5.840;2022-07-03T12:31:04;26.00;94.50
47516;DHT22;33249;51.990;5.840;2022-07-03T12:33:31;26.50;93.90
47516;DHT22;33249;51.990;5.840;2022-07-03T12:36:01;26.80;93.10
47516;DHT22;33249;51.990;5.840;2022-07-03T12:38:31;26.90;92.50
47516;DHT22;33249;51.990;5.840;2022-07-03T12:41:04;26.90;93.00
47516;DHT22;33249;51.990;5.840;2022-07-03T12:43:40;27.00;93.00
47516;DHT22;33249;51.990;5.840;2022-07-03T12:46:24;26.30;90.40
47516;DHT22;33249;51.990;5.840;2022-07-03T12:48:57;26.40;93.10
47516;DHT22;33249;51.990;5.840;2022-07-03T12:54:31;27.00;91.50
47516;DHT22;33249;51.990;5.840;2022-07-03T12:57:10;26.60;91.80
47516;DHT22;33249;51.990;5.840;2022-07-03T13:00:02;26.30;94.00
47516;DHT22;33249;51.990;5.840;2022-07-03T13:02:35;26.90;93.20
47516;DHT22;33249;51.990;5.840;2022-07-03T13:07:41;25.50;94.70
47516;DHT22;33249;51.990;5.840;2022-07-03T13:10:10;25.60;92.90
47516;DHT22;33249;51.990;5.840;2022-07-03T13:12:52;25.20;93.70
47516;DHT22;33249;51.990;5.840;2022-07-03T13:15:18;25.10;93.50
47516;DHT22;33249;51.990;5.840;2022-07-03T13:18:00;24.90;95.00
47516;DHT22;33249;51.990;5.840;2022-07-03T13:20:30;24.90;94.70
47516;DHT22;33249;51.990;5.840;2022-07-03T13:22:57;24.80;94.40
47516;DHT22;33249;51.990;5.840;2022-07-03T13:25:23;24.90;95.80
47516;DHT22;33249;51.990;5.840;2022-07-03T13:27:49;25.10;95.30
47516;DHT22;33249;51.990;5.840;2022-07-03T13:30:15;24.70;95.80
47516;DHT22;33249;51.990;5.840;2022-07-03T13:32:42;24.60;95.40
47516;DHT22;33249;51.990;5.840;2022-07-03T13:35:08;24.30;96.70
47516;DHT22;33249;51.990;5.840;2022-07-03T13:37:40;24.30;95.90
47516;DHT22;33249;51.990;5.840;2022-07-03T13:40:13;24.40;96.30
47516;DHT22;33249;51.990;5.840;2022-07-03T13:42:39;24.50;95.20
47516;DHT22;33249;51.990;5.840;2022-07-03T13:45:08;24.30;94.30
47516;DHT22;33249;51.990;5.840;2022-07-03T13:47:34;24.70;95.90
47516;DHT22;33249;51.990;5.840;2022-07-03T13:50:01;24.60;92.90
47516;DHT22;33249;51.990;5.840;2022-07-03T13:52:33;24.50;94.20
47516;DHT22;33249;51.990;5.840;2022-07-03T13:54:59;24.60;94.00
47516;DHT22;33249;51.990;5.840;2022-07-03T13:57:25;24.50;94.80
47516;DHT22;33249;51.990;5.840;2022-07-03T13:59:51;24.50;93.70
47516;DHT22;33249;51.990;5.840;2022-07-03T14:02:17;24.60;95.80
47516;DHT22;33249;51.990;5.840;2022-07-03T14:04:46;24.80;95.10
47516;DHT22;33249;51.990;5.840;2022-07-03T14:07:15;24.90;92.90
47516;DHT22;33249;51.990;5.840;2022-07-03T14:09:45;24.70;95.50
47516;DHT22;33249;51.990;5.840;2022-07-03T14:12:19;24.70;94.60
47516;DHT22;33249;51.990;5.840;2022-07-03T14:14:45;24.60;93.90
47516;DHT22;33249;51.990;5.840;2022-07-03T14:17:25;24.20;93.60
47516;DHT22;33249;51.990;5.840;2022-07-03T14:19:59;24.10;95.30
47516;DHT22;33249;51.990;5.840;2022-07-03T14:22:34;24.40;95.20
47516;DHT22;33249;51.990;5.840;2022-07-03T14:25:06;24.20;96.40
47516;DHT22;33249;51.990;5.840;2022-07-03T14:27:36;23.70;95.50
47516;DHT22;33249;51.990;5.840;2022-07-03T14:30:26;23.70;96.80
47516;DHT22;33249;51.990;5.840;2022-07-03T14:33:11;24.00;96.30
47516;DHT22;33249;51.990;5.840;2022-07-03T14:35:50;23.70;96.20
47516;DHT22;33249;51.990;5.840;2022-07-03T14:38:29;23.50;97.30
47516;DHT22;33249;51.990;5.840;2022-07-03T14:41:01;23.50;96.00
47516;DHT22;33249;51.990;5.840;2022-07-03T14:43:37;23.50;96.20
47516;DHT22;33249;51.990;5.840;2022-07-03T14:46:12;24.40;97.30
47516;DHT22;33249;51.990;5.840;2022-07-03T14:48:38;24.50;95.70
47516;DHT22;33249;51.990;5.840;2022-07-03T14:51:04;24.50;97.60
47516;DHT22;33249;51.990;5.840;2022-07-03T14:53:30;24.60;94.50
47516;DHT22;33249;51.990;5.840;2022-07-03T14:56:00;24.30;96.20
47516;DHT22;33249;51.990;5.840;2022-07-03T14:58:27;23.80;96.60
47516;DHT22;33249;51.990;5.840;2022-07-03T15:00:54;23.50;96.80
47516;DHT22;33249;51.990;5.840;2022-07-03T15:03:33;23.60;98.30
47516;DHT22;33249;51.990;5.840;2022-07-03T15:06:07;23.70;96.70
47516;DHT22;33249;51.990;5.840;2022-07-03T15:11:21;23.80;97.20
47516;DHT22;33249;51.990;5.840;2022-07-03T15:14:04;23.70;95.90
47516;DHT22;33249;51.990;5.840;2022-07-03T15:16:32;23.60;96.50
47516;DHT22;33249;51.990;5.840;2022-07-03T15:18:58;23.40;96.70
47516;DHT22;33249;51.990;5.840;2022-07-03T15:21:25;23.40;97.60
47516;DHT22;33249;51.990;5.840;2022-07-03T15:23:52;23.70;96.80
47516;DHT22;33249;51.990;5.840;2022-07-03T15:26:18;23.40;95.50
47516;DHT22;33249;51.990;5.840;2022-07-03T15:28:45;23.30;96.40
47516;DHT22;33249;51.990;5.840;2022-07-03T15:31:12;23.10;96.30
47516;DHT22;33249;51.990;5.840;2022-07-03T15:33:38;23.30;96.70
47516;DHT22;33249;51.990;5.840;2022-07-03T15:36:04;23.20;96.10
47516;DHT22;33249;51.990;5.840;2022-07-03T15:39:00;23.30;96.60
47516;DHT22;33249;51.990;5.840;2022-07-03T15:41:24;23.20;96.70
47516;DHT22;33249;51.990;5.840;2022-07-03T15:46:25;23.30;97.30
47516;DHT22;33249;51.990;5.840;2022-07-03T15:51:25;23.00;97.10
47516;DHT22;33249;51.990;5.840;2022-07-03T15:53:56;22.90;96.40
47516;DHT22;33249;51.990;5.840;2022-07-03T15:56:25;22.90;96.80
47516;DHT22;33249;51.990;5.840;2022-07-03T15:58:54;22.90;97.10
47516;DHT22;33249;51.990;5.840;2022-07-03T16:01:21;22.80;96.50
47516;DHT22;33249;51.990;5.840;2022-07-03T16:04:16;22.60;96.10
47516;DHT22;33249;51.990;5.840;2022-07-03T16:06:45;22.50;96.20
47516;DHT22;33249;51.990;5.840;2022-07-03T16:09:12;22.40;97.20
47516;DHT22;33249;51.990;5.840;2022-07-03T16:11:44;22.60;97.30
47516;DHT22;33249;51.990;5.840;2022-07-03T16:14:10;22.70;96.70
47516;DHT22;33249;51.990;5.840;2022-07-03T16:16:38;22.80;97.30
47516;DHT22;33249;51.990;5.840;2022-07-03T16:19:05;22.70;96.50
47516;DHT22;33249;51.990;5.840;2022-07-03T16:21:31;22.70;95.90
47516;DHT22;33249;51.990;5.840;2022-07-03T16:23:58;22.40;96.00
47516;DHT22;33249;51.990;5.840;2022-07-03T16:26:24;22.50;97.20
47516;DHT22;33249;51.990;5.840;2022-07-03T16:28:51;22.60;97.10
47516;DHT22;33249;51.990;5.840;2022-07-03T16:31:19;22.70;97.50
47516;DHT22;33249;51.990;5.840;2022-07-03T16:33:49;22.60;96.30
47516;DHT22;33249;51.990;5.840;2022-07-03T16:36:18;22.50;96.90
47516;DHT22;33249;51.990;5.840;2022-07-03T16:38:51;22.20;96.20
47516;DHT22;33249;51.990;5.840;2022-07-03T16:41:20;21.80;97.10
47516;DHT22;33249;51.990;5.840;2022-07-03T16:43:47;22.00;96.60
47516;DHT22;33249;51.990;5.840;2022-07-03T16:46:18;22.00;97.70
47516;DHT22;33249;51.990;5.840;2022-07-03T16:48:47;22.20;97.30
47516;DHT22;33249;51.990;5.840;2022-07-03T16:51:14;22.20;96.40
47516;DHT22;33249;51.990;5.840;2022-07-03T16:53:40;22.40;94.80
47516;DHT22;33249;51.990;5.840;2022-07-03T16:56:07;22.20;95.90
47516;DHT22;33249;51.990;5.840;2022-07-03T16:58:34;22.10;96.70
47516;DHT22;33249;51.990;5.840;2022-07-03T17:01:12;21.90;97.90
47516;DHT22;33249;51.990;5.840;2022-07-03T17:03:38;22.10;96.10
47516;DHT22;33249;51.990;5.840;2022-07-03T17:06:05;21.90;95.90
47516;DHT22;33249;51.990;5.840;2022-07-03T17:08:31;22.00;96.60
47516;DHT22;33249;51.990;5.840;2022-07-03T17:10:57;22.00;96.70
47516;DHT22;33249;51.990;5.840;2022-07-03T17:13:23;21.80;96.40
47516;DHT22;33249;51.990;5.840;2022-07-03T17:15:51;21.80;96.60
47516;DHT22;33249;51.990;5.840;2022-07-03T17:18:17;21.80;96.10
47516;DHT22;33249;51.990;5.840;2022-07-03T17:20:52;21.60;96.90